createdAt,value
2019-04-12T00:01:21.151Z,7.97
2019-04-12T00:03:48.246Z,8.00
2019-04-12T00:06:15.042Z,7.97
2019-04-12T00:08:41.748Z,7.93
2019-04-12T00:11:08.492Z,7.91
2019-04-12T00:13:35.214Z,7.74
2019-04-12T00:16:01.998Z,7.72
2019-04-12T00:18:28.708Z,7.59
2019-04-12T00:20:55.447Z,7.70
2019-04-12T00:23:22.586Z,7.64
2019-04-12T00:25:52.187Z,7.54
2019-04-12T00:28:19.597Z,7.50
2019-04-12T00:30:51.168Z,7.48
2019-04-12T00:33:15.856Z,7.48
2019-04-12T00:35:42.591Z,7.35
2019-04-12T00:38:09.322Z,7.33
2019-04-12T00:40:36.574Z,7.23
2019-04-12T00:43:03.789Z,7.28
2019-04-12T00:45:33.078Z,7.28
2019-04-12T00:47:59.329Z,7.28
2019-04-12T00:50:26.072Z,7.22
2019-04-12T00:52:53.690Z,7.15
2019-04-12T00:55:20.456Z,7.06
2019-04-12T00:57:47.162Z,6.93
2019-04-12T01:00:15.431Z,6.71
2019-04-12T01:02:47.714Z,6.68
2019-04-12T01:05:21.936Z,6.49
2019-04-12T01:08:03.828Z,6.29
2019-04-12T01:10:31.784Z,6.20
2019-04-12T01:12:58.558Z,5.99
2019-04-12T01:15:27.042Z,5.95
2019-04-12T01:17:54.168Z,5.95
2019-04-12T01:20:20.913Z,5.95
2019-04-12T01:22:47.671Z,6.01
2019-04-12T01:25:14.459Z,6.27
2019-04-12T01:27:41.173Z,6.27
2019-04-12T01:30:07.934Z,6.41
2019-04-12T01:32:34.667Z,6.55
2019-04-12T01:35:01.696Z,6.55
2019-04-12T01:37:28.420Z,6.47
2019-04-12T01:39:55.275Z,6.49
2019-04-12T01:42:22.004Z,6.49
2019-04-12T01:44:48.737Z,6.50
2019-04-12T01:47:15.470Z,6.50
2019-04-12T01:49:42.198Z,6.47
2019-04-12T01:52:08.962Z,6.32
2019-04-12T01:54:35.724Z,6.27
2019-04-12T01:57:02.432Z,6.28
2019-04-12T01:59:29.217Z,6.29
2019-04-12T02:01:55.962Z,6.29
2019-04-12T02:04:22.782Z,6.30
2019-04-12T02:06:51.469Z,6.28
2019-04-12T02:09:18.254Z,6.18
2019-04-12T02:11:45.007Z,6.06
2019-04-12T02:14:11.774Z,6.06
2019-04-12T02:16:38.521Z,6.01
2019-04-12T02:19:05.271Z,6.09
2019-04-12T02:21:32.027Z,6.33
2019-04-12T02:23:58.848Z,6.35
2019-04-12T02:26:26.102Z,6.35
2019-04-12T02:28:52.839Z,6.32
2019-04-12T02:31:21.596Z,6.13
2019-04-12T02:33:48.340Z,6.13
2019-04-12T02:36:16.726Z,6.11
2019-04-12T02:38:43.474Z,6.09
2019-04-12T02:41:10.473Z,6.12
2019-04-12T02:43:37.274Z,6.12
2019-04-12T02:46:05.673Z,6.09
2019-04-12T02:48:58.189Z,5.98
2019-04-12T02:51:30.735Z,5.92
2019-04-12T02:54:30.373Z,6.00
2019-04-12T02:57:03.737Z,6.00
2019-04-12T02:59:32.683Z,5.86
2019-04-12T03:01:59.533Z,5.86
2019-04-12T03:04:26.763Z,5.81
2019-04-12T03:06:53.505Z,5.78
2019-04-12T03:09:22.410Z,5.75
2019-04-12T03:11:49.662Z,5.83
2019-04-12T03:14:16.639Z,5.83
2019-04-12T03:16:43.403Z,5.80
2019-04-12T03:19:10.144Z,5.58
2019-04-12T03:21:37.003Z,5.58
2019-04-12T03:24:03.918Z,5.65
2019-04-12T03:26:30.667Z,5.58
2019-04-12T03:29:00.329Z,5.32
2019-04-12T03:31:28.873Z,5.32
2019-04-12T03:33:55.844Z,5.28
2019-04-12T03:36:22.569Z,5.28
2019-04-12T03:38:49.300Z,5.28
2019-04-12T03:41:16.047Z,5.47
2019-04-12T03:43:42.991Z,5.42
2019-04-12T03:46:09.902Z,5.33
2019-04-12T03:48:36.632Z,5.18
2019-04-12T03:51:03.493Z,5.18
2019-04-12T03:53:30.613Z,5.06
2019-04-12T03:56:08.067Z,5.06
2019-04-12T03:58:26.045Z,5.04
2019-04-12T04:00:52.793Z,5.05
2019-04-12T04:03:19.633Z,4.92
2019-04-12T04:05:46.368Z,4.84
2019-04-12T04:08:15.368Z,4.84
2019-04-12T04:10:42.092Z,4.83
2019-04-12T04:13:08.881Z,4.83
2019-04-12T04:15:36.443Z,4.88
2019-04-12T04:18:23.180Z,4.96
2019-04-12T04:21:09.244Z,4.93
2019-04-12T04:23:41.615Z,4.77
2019-04-12T04:26:23.558Z,4.68
2019-04-12T04:29:25.168Z,4.68
2019-04-12T04:32:17.572Z,4.75
2019-04-12T04:34:44.476Z,4.69
2019-04-12T04:37:14.732Z,4.56
2019-04-12T04:39:41.475Z,4.59
2019-04-12T04:42:08.270Z,4.67
2019-04-12T04:44:38.354Z,4.67
2019-04-12T04:47:05.114Z,4.70
2019-04-12T04:49:32.435Z,4.69
2019-04-12T04:52:02.024Z,4.59
2019-04-12T04:54:28.785Z,4.61
2019-04-12T04:56:55.495Z,4.69
2019-04-12T04:59:22.585Z,4.72
2019-04-12T05:01:49.309Z,4.61
2019-04-12T05:04:16.045Z,4.58
2019-04-12T05:06:42.833Z,4.47
2019-04-12T05:09:12.420Z,4.40
2019-04-12T05:11:38.671Z,4.35
2019-04-12T05:14:05.428Z,4.35
2019-04-12T05:16:32.244Z,4.34
2019-04-12T05:18:59.097Z,4.34
2019-04-12T05:21:26.116Z,4.37
2019-04-12T05:23:53.252Z,4.49
2019-04-12T05:26:20.325Z,4.53
2019-04-12T05:28:47.081Z,4.59
2019-04-12T05:31:13.848Z,4.59
2019-04-12T05:33:40.647Z,4.72
2019-04-12T05:36:08.059Z,4.72
2019-04-12T05:38:35.278Z,4.83
2019-04-12T05:41:10.888Z,4.82
2019-04-12T05:43:44.447Z,4.77
2019-04-12T05:46:29.875Z,4.73
2019-04-12T05:49:06.335Z,4.94
2019-04-12T05:51:33.055Z,4.94
2019-04-12T05:54:02.277Z,4.91
2019-04-12T05:56:29.839Z,4.94
2019-04-12T05:59:02.069Z,4.93
2019-04-12T06:01:40.859Z,5.11
2019-04-12T06:04:07.773Z,5.11
2019-04-12T06:06:36.027Z,5.00
2019-04-12T06:09:07.094Z,5.07
2019-04-12T06:11:33.963Z,5.07
2019-04-12T06:14:00.707Z,5.10
2019-04-12T06:16:27.451Z,5.22
2019-04-12T06:18:54.590Z,5.30
2019-04-12T06:21:35.937Z,5.48
2019-04-12T06:24:04.506Z,5.59
2019-04-12T06:26:46.909Z,5.70
2019-04-12T06:29:14.080Z,5.70
2019-04-12T06:31:40.981Z,5.76
2019-04-12T06:34:07.761Z,5.85
2019-04-12T06:36:34.513Z,5.84
2019-04-12T06:39:01.412Z,5.84
2019-04-12T06:41:28.531Z,5.87
2019-04-12T06:43:55.660Z,5.90
2019-04-12T06:46:22.449Z,5.95
2019-04-12T06:48:49.452Z,6.04
2019-04-12T06:51:26.416Z,6.04
2019-04-12T06:53:53.417Z,6.25
2019-04-12T06:56:37.757Z,6.25
2019-04-12T06:59:06.729Z,6.34
2019-04-12T07:01:44.563Z,6.39
2019-04-12T07:04:35.356Z,6.36
2019-04-12T07:07:04.931Z,6.36
2019-04-12T07:09:37.979Z,6.49
2019-04-12T07:12:04.846Z,6.60
2019-04-12T07:14:31.653Z,6.38
2019-04-12T07:16:58.803Z,6.46
2019-04-12T07:19:25.641Z,6.05
2019-04-12T07:21:52.431Z,6.05
2019-04-12T07:24:19.803Z,5.89
2019-04-12T07:26:46.838Z,5.75
2019-04-12T07:29:13.647Z,5.88
2019-04-12T07:31:40.736Z,6.27
2019-04-12T07:34:07.480Z,6.52
2019-04-12T07:36:34.337Z,6.52
2019-04-12T07:39:01.362Z,6.29
2019-04-12T07:41:28.107Z,6.23
2019-04-12T07:43:57.156Z,6.58
2019-04-12T07:46:24.135Z,6.56
2019-04-12T07:48:51.265Z,6.35
2019-04-12T07:51:37.691Z,6.35
2019-04-12T07:54:23.257Z,6.72
2019-04-12T07:56:50.130Z,6.89
2019-04-12T07:59:26.992Z,6.76
2019-04-12T08:02:29.355Z,6.76
2019-04-12T08:05:13.628Z,6.89
2019-04-12T08:07:52.155Z,6.94
2019-04-12T08:10:19.098Z,6.67
2019-04-12T08:12:45.896Z,6.90
2019-04-12T08:15:13.857Z,6.90
2019-04-12T08:17:41.265Z,7.26
2019-04-12T08:20:10.366Z,7.29
2019-04-12T08:22:37.277Z,7.29
2019-04-12T08:25:05.385Z,7.68
2019-04-12T08:27:32.177Z,7.92
2019-04-12T08:29:59.169Z,7.99
2019-04-12T08:32:25.934Z,7.96
2019-04-12T08:34:53.533Z,8.04
2019-04-12T08:37:20.786Z,7.81
2019-04-12T08:39:47.760Z,7.91
2019-04-12T08:42:15.308Z,8.06
2019-04-12T08:44:42.245Z,8.02
2019-04-12T08:47:08.962Z,7.64
2019-04-12T08:49:35.741Z,7.55
2019-04-12T08:52:02.755Z,7.67
2019-04-12T08:54:31.978Z,8.21
2019-04-12T08:56:58.911Z,8.21
2019-04-12T08:59:25.773Z,8.45
2019-04-12T09:01:52.561Z,8.68
2019-04-12T09:04:19.583Z,8.91
2019-04-12T09:06:46.629Z,9.07
2019-04-12T09:09:15.759Z,9.16
2019-04-12T09:11:42.744Z,9.22
2019-04-12T09:14:18.800Z,9.32
2019-04-12T09:16:46.046Z,9.18
2019-04-12T09:19:36.086Z,9.29
2019-04-12T09:22:40.805Z,9.53
2019-04-12T09:25:19.968Z,9.47
2019-04-12T09:27:47.490Z,9.54
2019-04-12T09:30:14.402Z,9.57
2019-04-12T09:32:41.312Z,9.29
2019-04-12T09:35:09.238Z,9.48
2019-04-12T09:37:36.874Z,9.61
2019-04-12T09:40:04.620Z,9.44
2019-04-12T09:42:31.419Z,8.85
2019-04-12T09:44:58.824Z,8.98
2019-04-12T09:47:25.692Z,9.05
2019-04-12T09:49:52.660Z,9.54
2019-04-12T09:52:19.682Z,9.80
2019-04-12T09:54:46.702Z,10.07
2019-04-12T09:57:13.658Z,10.11
2019-04-12T09:59:40.913Z,10.20
2019-04-12T10:02:13.605Z,10.24
2019-04-12T10:04:36.540Z,10.22
2019-04-12T10:07:03.567Z,10.07
2019-04-12T10:09:31.022Z,9.55
2019-04-12T10:11:58.838Z,9.83
2019-04-12T10:14:25.689Z,10.01
2019-04-12T10:16:52.750Z,10.28
2019-04-12T10:19:19.532Z,10.66
2019-04-12T10:21:46.416Z,10.87
2019-04-12T10:24:14.468Z,10.40
2019-04-12T10:26:41.602Z,10.28
2019-04-12T10:29:08.580Z,10.41
2019-04-12T10:31:37.317Z,9.99
2019-04-12T10:34:04.634Z,9.55
2019-04-12T10:36:33.618Z,10.15
2019-04-12T10:39:08.513Z,10.10
2019-04-12T10:41:36.386Z,9.79
2019-04-12T10:44:38.115Z,9.59
2019-04-12T10:47:19.883Z,9.56
2019-04-12T10:49:55.993Z,9.47
2019-04-12T10:52:31.179Z,9.83
2019-04-12T10:55:03.363Z,10.19
2019-04-12T10:57:31.861Z,10.34
2019-04-12T10:59:59.011Z,10.03
2019-04-12T11:02:27.058Z,9.99
2019-04-12T11:04:54.220Z,10.04
2019-04-12T11:07:21.028Z,10.78
2019-04-12T11:09:49.497Z,10.87
2019-04-12T11:12:16.696Z,10.60
2019-04-12T11:14:44.674Z,10.39
2019-04-12T11:17:11.982Z,10.30
2019-04-12T11:19:40.400Z,9.02
2019-04-12T11:22:20.753Z,10.00
2019-04-12T11:24:49.131Z,10.00
2019-04-12T11:27:16.084Z,10.42
2019-04-12T11:29:43.299Z,10.08
2019-04-12T11:32:10.088Z,10.41
2019-04-12T11:34:42.677Z,10.72
2019-04-12T11:37:09.472Z,11.02
2019-04-12T11:39:36.372Z,11.44
2019-04-12T11:42:07.002Z,10.87
2019-04-12T11:44:36.240Z,10.59
2019-04-12T11:47:05.546Z,10.69
2019-04-12T11:49:32.321Z,10.88
2019-04-12T11:52:01.222Z,11.51
2019-04-12T11:54:32.009Z,11.85
2019-04-12T11:56:59.734Z,11.96
2019-04-12T11:59:29.801Z,12.11
2019-04-12T12:02:20.432Z,11.59
2019-04-12T12:05:05.238Z,11.21
2019-04-12T12:07:51.680Z,11.26
2019-04-12T12:10:52.747Z,12.03
2019-04-12T12:13:34.766Z,12.35
2019-04-12T12:16:23.168Z,12.73
2019-04-12T12:18:53.595Z,12.96
2019-04-12T12:21:22.545Z,13.24
2019-04-12T12:24:14.914Z,13.10
2019-04-12T12:26:42.405Z,12.74
2019-04-12T12:29:09.135Z,12.73
2019-04-12T12:31:36.843Z,12.88
2019-04-12T12:34:04.969Z,12.81
2019-04-12T12:36:31.845Z,12.80
2019-04-12T12:38:58.907Z,12.75
2019-04-12T12:41:25.854Z,13.03
2019-04-12T12:43:56.370Z,12.98
2019-04-12T12:46:25.037Z,12.84
2019-04-12T12:48:52.923Z,12.51
2019-04-12T12:51:19.775Z,12.06
2019-04-12T12:53:47.235Z,12.03
2019-04-12T12:56:13.974Z,12.23
2019-04-12T12:58:42.650Z,11.59
2019-04-12T13:01:09.411Z,11.83
2019-04-12T13:03:38.376Z,12.22
2019-04-12T13:06:05.254Z,12.52
2019-04-12T13:08:32.038Z,12.64
2019-04-12T13:10:58.781Z,12.12
2019-04-12T13:13:25.495Z,12.12
2019-04-12T13:15:54.165Z,11.84
2019-04-12T13:18:20.892Z,11.54
2019-04-12T13:20:49.113Z,11.33
2019-04-12T13:23:16.647Z,11.43
2019-04-12T13:25:43.622Z,11.80
2019-04-12T13:28:10.593Z,11.78
2019-04-12T13:31:02.786Z,11.72
2019-04-12T13:33:52.155Z,11.87
2019-04-12T13:36:39.147Z,11.08
2019-04-12T13:39:21.164Z,11.04
2019-04-12T13:41:47.967Z,11.34
2019-04-12T13:44:14.966Z,11.80
2019-04-12T13:46:42.482Z,11.55
2019-04-12T13:49:10.637Z,11.52
2019-04-12T13:51:38.230Z,11.66
2019-04-12T13:54:05.015Z,11.75
2019-04-12T13:57:04.051Z,12.01
2019-04-12T13:59:50.977Z,11.72
2019-04-12T14:02:20.611Z,8.46
2019-04-12T14:04:47.497Z,11.93
2019-04-12T14:07:14.531Z,11.53
2019-04-12T14:09:41.755Z,11.42
2019-04-12T14:12:08.553Z,11.61
2019-04-12T14:14:36.913Z,11.85
2019-04-12T14:17:08.421Z,11.97
2019-04-12T14:19:35.668Z,11.79
2019-04-12T14:22:02.421Z,12.04
2019-04-12T14:24:31.915Z,12.00
2019-04-12T14:26:58.767Z,11.42
2019-04-12T14:29:25.636Z,11.94
2019-04-12T14:31:52.803Z,12.24
2019-04-12T14:34:43.153Z,12.41
2019-04-12T14:37:27.755Z,12.38
2019-04-12T14:39:54.619Z,12.00
2019-04-12T14:42:21.815Z,11.83
2019-04-12T14:44:59.675Z,12.01
2019-04-12T14:47:35.215Z,12.03
2019-04-12T14:50:02.092Z,11.43
2019-04-12T14:52:28.891Z,11.69
2019-04-12T14:54:56.033Z,11.09
2019-04-12T14:57:22.787Z,10.72
2019-04-12T14:59:49.701Z,10.73
2019-04-12T15:02:21.671Z,10.51
2019-04-12T15:04:55.333Z,10.80
2019-04-12T15:07:26.012Z,10.82
2019-04-12T15:09:53.866Z,10.78
2019-04-12T15:12:21.007Z,10.98
2019-04-12T15:14:47.852Z,11.19
2019-04-12T15:17:20.257Z,11.20
2019-04-12T15:19:51.753Z,11.31
2019-04-12T15:22:22.624Z,11.20
2019-04-12T15:25:00.329Z,10.68
2019-04-12T15:27:31.141Z,10.83
2019-04-12T15:30:00.337Z,9.22
2019-04-12T15:32:29.227Z,10.39
2019-04-12T15:34:55.873Z,10.36
2019-04-12T15:37:22.872Z,10.39
2019-04-12T15:39:52.089Z,9.93
2019-04-12T15:42:19.691Z,9.99
2019-04-12T15:44:46.977Z,9.92
2019-04-12T15:47:13.999Z,11.15
2019-04-12T15:49:40.880Z,12.71
2019-04-12T15:52:07.905Z,12.49
2019-04-12T15:54:36.163Z,10.84
2019-04-12T15:57:06.333Z,10.68
2019-04-12T15:59:33.362Z,10.86
2019-04-12T16:02:08.136Z,10.82
2019-04-12T16:04:35.623Z,10.77
2019-04-12T16:07:02.513Z,10.80
2019-04-12T16:09:30.760Z,10.67
2019-04-12T16:12:34.537Z,10.87
2019-04-12T16:15:58.038Z,10.97
2019-04-12T16:18:25.011Z,11.05
2019-04-12T16:20:52.418Z,11.06
2019-04-12T16:23:29.306Z,10.88
2019-04-12T16:25:57.038Z,10.83
2019-04-12T16:28:46.315Z,10.89
2019-04-12T16:31:38.928Z,10.83
2019-04-12T16:34:27.987Z,9.20
2019-04-12T16:37:00.465Z,10.52
2019-04-12T16:39:28.020Z,10.38
2019-04-12T16:41:54.797Z,10.61
2019-04-12T16:44:23.731Z,10.23
2019-04-12T16:46:52.772Z,10.23
2019-04-12T16:49:19.547Z,10.24
2019-04-12T16:51:47.604Z,10.27
2019-04-12T16:54:15.815Z,10.21
2019-04-12T16:56:45.507Z,10.08
2019-04-12T16:59:16.738Z,9.97
2019-04-12T17:01:43.470Z,10.06
2019-04-12T17:04:10.250Z,10.09
2019-04-12T17:06:37.304Z,10.03
2019-04-12T17:09:06.192Z,10.13
2019-04-12T17:11:32.954Z,10.20
2019-04-12T17:13:59.898Z,10.23
2019-04-12T17:16:27.061Z,9.94
2019-04-12T17:18:55.959Z,10.07
2019-04-12T17:21:23.339Z,10.05
2019-04-12T17:23:50.110Z,10.07
2019-04-12T17:26:16.871Z,10.07
2019-04-12T17:28:43.724Z,10.05
2019-04-12T17:31:10.471Z,10.11
2019-04-12T17:33:40.812Z,10.12
2019-04-12T17:36:07.821Z,8.62
2019-04-12T17:38:34.610Z,10.10
2019-04-12T17:41:01.492Z,9.85
2019-04-12T17:43:28.255Z,9.95
2019-04-12T17:45:55.196Z,10.08
2019-04-12T17:48:32.263Z,10.04
2019-04-12T17:50:59.156Z,9.90
2019-04-12T17:53:52.392Z,9.78
2019-04-12T17:56:26.881Z,9.82
2019-04-12T17:58:48.679Z,9.88
2019-04-12T18:01:29.714Z,9.74
2019-04-12T18:03:58.892Z,9.69
2019-04-12T18:06:27.723Z,9.57
2019-04-12T18:08:54.454Z,9.68
2019-04-12T18:11:29.258Z,9.42
2019-04-12T18:13:56.201Z,9.26
2019-04-12T18:16:28.553Z,9.11
2019-04-12T18:18:55.627Z,9.15
2019-04-12T18:21:22.396Z,8.93
2019-04-12T18:23:49.156Z,8.75
2019-04-12T18:26:15.906Z,9.16
2019-04-12T18:28:42.709Z,9.31
2019-04-12T18:31:09.645Z,9.18
2019-04-12T18:33:50.438Z,8.88
2019-04-12T18:36:18.622Z,8.82
2019-04-12T18:38:45.760Z,8.78
2019-04-12T18:41:14.725Z,8.70
2019-04-12T18:43:41.456Z,8.65
2019-04-12T18:46:09.809Z,8.76
2019-04-12T18:48:37.405Z,8.89
2019-04-12T18:51:14.509Z,8.97
2019-04-12T18:53:41.300Z,9.03
2019-04-12T18:56:08.849Z,9.05
2019-04-12T18:58:35.642Z,9.08
2019-04-12T19:01:02.653Z,9.12
2019-04-12T19:03:29.687Z,8.68
2019-04-12T19:05:57.086Z,8.46
2019-04-12T19:08:24.021Z,8.47
2019-04-12T19:10:51.044Z,8.40
2019-04-12T19:13:17.810Z,8.48
2019-04-12T19:15:44.559Z,8.71
2019-04-12T19:18:11.462Z,8.79
2019-04-12T19:20:38.547Z,8.76
2019-04-12T19:23:05.553Z,8.40
2019-04-12T19:25:32.360Z,8.20
2019-04-12T19:27:59.452Z,8.28
2019-04-12T19:30:29.276Z,8.54
2019-04-12T19:33:19.058Z,8.65
2019-04-12T19:36:13.262Z,8.73
2019-04-12T19:38:57.796Z,8.65
2019-04-12T19:41:27.925Z,8.65
2019-04-12T19:43:59.054Z,8.57
2019-04-12T19:46:29.054Z,8.67
2019-04-12T19:48:57.282Z,8.61
2019-04-12T19:51:24.083Z,8.52
2019-04-12T19:53:52.212Z,8.43
2019-04-12T19:56:18.992Z,8.43
2019-04-12T19:58:45.823Z,8.54
2019-04-12T20:01:12.707Z,8.39
2019-04-12T20:03:39.876Z,8.39
2019-04-12T20:06:06.778Z,8.30
2019-04-12T20:08:33.900Z,8.29
2019-04-12T20:11:00.669Z,8.10
2019-04-12T20:13:27.972Z,7.97
2019-04-12T20:15:54.739Z,8.02
2019-04-12T20:18:21.554Z,7.94
2019-04-12T20:20:48.406Z,7.95
2019-04-12T20:23:15.186Z,8.03
2019-04-12T20:25:41.970Z,7.85
2019-04-12T20:28:09.017Z,7.81
2019-04-12T20:30:35.766Z,7.75
2019-04-12T20:33:04.579Z,7.76
2019-04-12T20:35:31.385Z,7.83
2019-04-12T20:37:58.635Z,7.69
2019-04-12T20:40:25.890Z,7.79
2019-04-12T20:42:52.632Z,7.92
2019-04-12T20:45:19.833Z,7.90
2019-04-12T20:47:46.847Z,7.64
2019-04-12T20:50:13.689Z,7.69
2019-04-12T20:52:40.448Z,7.81
2019-04-12T20:55:07.188Z,7.93
2019-04-12T20:57:38.124Z,7.94
2019-04-12T21:00:04.979Z,8.01
2019-04-12T21:02:39.973Z,8.01
2019-04-12T21:05:01.030Z,7.94
2019-04-12T21:07:28.186Z,7.88
2019-04-12T21:09:55.492Z,7.64
2019-04-12T21:12:22.284Z,7.75
2019-04-12T21:14:49.466Z,7.74
2019-04-12T21:17:23.074Z,7.70
2019-04-12T21:19:50.137Z,7.70
2019-04-12T21:22:17.138Z,7.81
2019-04-12T21:24:48.577Z,7.98
2019-04-12T21:27:15.630Z,7.99
2019-04-12T21:29:42.801Z,7.95
2019-04-12T21:32:10.170Z,7.89
2019-04-12T21:34:40.392Z,7.91
2019-04-12T21:37:08.229Z,7.92
2019-04-12T21:39:35.172Z,7.94
2019-04-12T21:42:03.032Z,7.99
2019-04-12T21:44:30.065Z,7.93
2019-04-12T21:46:56.994Z,7.88
2019-04-12T21:49:24.147Z,7.93
2019-04-12T21:51:52.748Z,7.76
2019-04-12T21:54:19.973Z,7.76
2019-04-12T21:56:47.419Z,7.65
2019-04-12T21:59:14.893Z,7.66
2019-04-12T22:01:49.425Z,7.64
2019-04-12T22:04:19.603Z,7.74
2019-04-12T22:06:46.804Z,7.72
2019-04-12T22:09:13.818Z,7.70
2019-04-12T22:11:40.853Z,7.81
2019-04-12T22:14:14.561Z,7.92
2019-04-12T22:16:36.762Z,7.77
2019-04-12T22:19:05.456Z,7.70
2019-04-12T22:21:32.488Z,7.61
2019-04-12T22:23:59.489Z,7.61
2019-04-12T22:26:26.363Z,7.61
2019-04-12T22:28:53.242Z,7.41
2019-04-12T22:31:22.088Z,7.45
2019-04-12T22:33:53.283Z,7.49
2019-04-12T22:36:18.047Z,7.56
2019-04-12T22:38:45.014Z,7.59
2019-04-12T22:41:12.095Z,7.58
2019-04-12T22:43:39.006Z,7.49
2019-04-12T22:46:06.045Z,6.86
2019-04-12T22:48:32.799Z,6.86
2019-04-12T22:50:59.582Z,7.16
2019-04-12T22:53:27.149Z,7.29
2019-04-12T22:55:54.240Z,7.27
2019-04-12T22:58:20.992Z,7.27
2019-04-12T23:00:47.874Z,7.18
2019-04-12T23:03:17.169Z,7.18
2019-04-12T23:05:44.273Z,7.22
2019-04-12T23:08:13.479Z,7.22
2019-04-12T23:10:40.579Z,6.98
2019-04-12T23:13:07.332Z,6.92
2019-04-12T23:15:36.999Z,6.81
2019-04-12T23:18:03.761Z,7.08
2019-04-12T23:20:30.506Z,7.08
2019-04-12T23:22:59.448Z,7.22
2019-04-12T23:25:26.056Z,7.20
2019-04-12T23:27:55.302Z,7.30
2019-04-12T23:30:47.454Z,7.24
2019-04-12T23:33:15.103Z,7.25
2019-04-12T23:35:45.143Z,7.27
2019-04-12T23:38:14.557Z,7.37
2019-04-12T23:40:41.320Z,7.48
2019-04-12T23:43:08.131Z,7.37
2019-04-12T23:45:34.890Z,7.27
2019-04-12T23:48:01.762Z,7.36
2019-04-12T23:50:28.525Z,7.26
2019-04-12T23:52:55.611Z,7.22
2019-04-12T23:55:22.385Z,7.12
2019-04-12T23:57:49.128Z,6.81
